Time;durP1;ratioP1;P1;durP2;ratioP2;P2;SDS_P1;SDS_P2;PMS_P1;PMS_P2;Temp;Humidity;BMP_temperature;BMP_pressure;BME280_temperature;BME280_humidity;BME280_pressure;Samples;Min_cycle;Max_cycle;Signal;HPM_P1;HPM_P2
2021/10/27 00:02:46;;;;;;;12.13;4.67;;;;;;;;;;10418508;28;20049;-86
2021/10/27 00:07:47;;;;;;;9.15;4.70;;;;;;;;;;10409939;28;21058;-87
2021/10/27 00:12:47;;;;;;;6.38;3.90;;;;;;;;;;10420220;28;20375;-86
2021/10/27 00:17:48;;;;;;;7.78;4.18;;;;;;;;;;10418980;28;20037;-85
2021/10/27 00:22:48;;;;;;;7.20;4.10;;;;;;;;;;10411357;28;20059;-84
2021/10/27 00:27:49;;;;;;;10.23;4.20;;;;;;;;;;10417084;28;21023;-86
2021/10/27 00:32:49;;;;;;;6.47;3.93;;;;;;;;;;10438639;28;20443;-86
2021/10/27 00:37:50;;;;;;;10.95;3.78;;;;;;;;;;10412437;28;20029;-85
2021/10/27 00:42:50;;;;;;;7.13;3.95;;;;;;;;;;10428606;28;20033;-85
2021/10/27 00:47:51;;;;;;;10.00;3.63;;;;;;;;;;10413301;28;20376;-85
2021/10/27 00:52:51;;;;;;;5.07;3.50;;;;;;;;;;10428696;28;20439;-84
2021/10/27 00:57:52;;;;;;;6.73;3.60;;;;;;;;;;10413140;28;20388;-84
2021/10/27 01:02:53;;;;;;;12.50;4.25;;;;;;;;;;10412915;28;20458;-84
2021/10/27 01:07:54;;;;;;;9.53;4.17;;;;;;;;;;10412628;28;20036;-84
2021/10/27 01:12:54;;;;;;;8.18;4.20;;;;;;;;;;10438733;28;20781;-85
2021/10/27 01:17:55;;;;;;;10.30;3.53;;;;;;;;;;10409701;28;20029;-85
2021/10/27 01:22:56;;;;;;;6.03;3.40;;;;;;;;;;10414864;28;20541;-84
2021/10/27 01:28:00;;;;;;;5.43;3.20;;;;;;;;;;10407690;28;20458;-84
2021/10/27 01:33:00;;;;;;;7.97;3.63;;;;;;;;;;10407437;28;21003;-84
2021/10/27 01:38:01;;;;;;;5.25;3.30;;;;;;;;;;10419566;28;20065;-84
2021/10/27 01:43:01;;;;;;;8.73;3.50;;;;;;;;;;10420640;28;20452;-83
2021/10/27 01:48:02;;;;;;;4.28;3.40;;;;;;;;;;10419519;28;20553;-83
2021/10/27 01:53:02;;;;;;;6.13;3.42;;;;;;;;;;10418873;28;20025;-84
2021/10/27 01:58:03;;;;;;;5.82;3.65;;;;;;;;;;10406233;28;20033;-83
2021/10/27 02:03:03;;;;;;;6.38;3.78;;;;;;;;;;10419926;28;20041;-83
2021/10/27 02:08:04;;;;;;;4.63;3.20;;;;;;;;;;10420172;28;20030;-83
2021/10/27 02:13:04;;;;;;;3.90;3.20;;;;;;;;;;10412803;28;20439;-84
2021/10/27 02:18:04;;;;;;;4.32;3.25;;;;;;;;;;10443616;28;20387;-84
2021/10/27 02:23:05;;;;;;;7.57;3.27;;;;;;;;;;10423428;28;20448;-84
2021/10/27 02:28:06;;;;;;;9.30;3.60;;;;;;;;;;10441680;28;20422;-83
2021/10/27 02:33:06;;;;;;;8.10;3.80;;;;;;;;;;10428304;28;20061;-83
2021/10/27 02:38:06;;;;;;;4.53;3.40;;;;;;;;;;10401573;28;20478;-84
2021/10/27 02:43:07;;;;;;;6.78;3.60;;;;;;;;;;10418033;28;20455;-83
2021/10/27 02:48:07;;;;;;;4.20;2.85;;;;;;;;;;10404220;28;20399;-84
2021/10/27 02:53:08;;;;;;;5.43;3.17;;;;;;;;;;10417743;28;20056;-83
2021/10/27 02:58:08;;;;;;;6.90;3.42;;;;;;;;;;10407960;28;20164;-82
2021/10/27 03:03:09;;;;;;;4.53;3.13;;;;;;;;;;10393005;28;20041;-84
2021/10/27 03:08:09;;;;;;;6.15;3.58;;;;;;;;;;10417179;28;20274;-83
2021/10/27 03:13:10;;;;;;;4.65;2.92;;;;;;;;;;10415841;28;20040;-83
2021/10/27 03:18:10;;;;;;;5.55;3.45;;;;;;;;;;10412846;28;20475;-83
2021/10/27 03:23:11;;;;;;;6.27;3.33;;;;;;;;;;10417179;28;20025;-83
2021/10/27 03:28:11;;;;;;;6.05;3.05;;;;;;;;;;10420276;28;20508;-83
2021/10/27 03:33:11;;;;;;;5.20;3.30;;;;;;;;;;10422943;28;20036;-83
2021/10/27 03:38:12;;;;;;;4.13;3.03;;;;;;;;;;10414488;28;20979;-83
2021/10/27 03:43:14;;;;;;;5.60;3.30;;;;;;;;;;10437596;28;20455;-83
2021/10/27 03:48:14;;;;;;;5.90;3.30;;;;;;;;;;10425312;28;20773;-83
2021/10/27 03:53:15;;;;;;;4.80;3.25;;;;;;;;;;10428672;28;20025;-83
2021/10/27 03:58:15;;;;;;;4.22;3.10;;;;;;;;;;10405352;28;20112;-82
2021/10/27 04:03:21;;;;;;;4.93;3.00;;;;;;;;;;10433258;28;20451;-83
2021/10/27 04:08:21;;;;;;;4.93;2.90;;;;;;;;;;10429070;28;20451;-83
2021/10/27 04:13:22;;;;;;;5.53;3.05;;;;;;;;;;10429955;28;20036;-82
2021/10/27 04:18:22;;;;;;;4.70;3.22;;;;;;;;;;10428822;28;20404;-83
2021/10/27 04:23:23;;;;;;;18.60;3.10;;;;;;;;;;10414227;28;20375;-82
2021/10/27 04:28:23;;;;;;;4.97;3.45;;;;;;;;;;10412469;28;20021;-83
2021/10/27 04:33:23;;;;;;;4.10;2.90;;;;;;;;;;10413252;28;20057;-82
2021/10/27 04:38:24;;;;;;;4.15;2.50;;;;;;;;;;10415736;28;21633;-84
2021/10/27 04:43:24;;;;;;;5.43;3.55;;;;;;;;;;10414417;28;20057;-82
2021/10/27 04:48:25;;;;;;;5.30;3.30;;;;;;;;;;10419525;28;20067;-83
2021/10/27 04:53:26;;;;;;;4.00;2.88;;;;;;;;;;10418376;28;20475;-82
2021/10/27 04:58:29;;;;;;;5.25;2.75;;;;;;;;;;10421715;28;20060;-82
2021/10/27 05:03:30;;;;;;;3.17;2.60;;;;;;;;;;10435118;28;20026;-81
2021/10/27 05:08:32;;;;;;;5.35;3.55;;;;;;;;;;10410985;28;20167;-79
2021/10/27 05:13:33;;;;;;;5.22;3.53;;;;;;;;;;10425140;28;20104;-78
2021/10/27 05:18:33;;;;;;;5.25;4.75;;;;;;;;;;10414720;28;20360;-79
2021/10/27 05:23:35;;;;;;;7.32;4.95;;;;;;;;;;10412908;28;20116;-79
2021/10/27 05:28:35;;;;;;;5.30;4.18;;;;;;;;;;10426698;28;20021;-80
2021/10/27 05:33:36;;;;;;;4.23;3.20;;;;;;;;;;10419678;28;20025;-79
2021/10/27 05:38:36;;;;;;;3.77;2.50;;;;;;;;;;10411078;28;20045;-80
2021/10/27 05:43:37;;;;;;;3.53;2.95;;;;;;;;;;10413029;28;20046;-79
2021/10/27 05:48:42;;;;;;;3.65;3.22;;;;;;;;;;10444666;28;20028;-80
2021/10/27 05:59:01;;;;;;;4.50;3.45;;;;;;;;;;10416239;28;20045;-79
2021/10/27 06:04:01;;;;;;;7.13;3.17;;;;;;;;;;10419633;28;20033;-77
2021/10/27 06:09:01;;;;;;;7.37;3.70;;;;;;;;;;10408937;28;20432;-78
2021/10/27 06:14:03;;;;;;;23.20;3.85;;;;;;;;;;10417849;28;20068;-81
2021/10/27 06:19:04;;;;;;;8.15;4.20;;;;;;;;;;10418322;28;20030;-80
2021/10/27 06:24:06;;;;;;;11.32;3.72;;;;;;;;;;10438867;28;20033;-80
2021/10/27 06:29:09;;;;;;;15.23;4.35;;;;;;;;;;10434759;28;20464;-81
2021/10/27 06:34:23;;;;;;;12.57;4.60;;;;;;;;;;10408859;28;20034;-80
2021/10/27 06:50:09;;;;;;;;;;;;;;;;;;10418183;28;20455;-80
2021/10/27 06:55:09;;;;;;;13.18;4.10;;;;;;;;;;10416697;28;19913;-80
2021/10/27 07:00:55;;;;;;;15.20;4.10;;;;;;;;;;10410052;28;20112;-80
2021/10/27 07:15:59;;;;;;;9.30;3.78;;;;;;;;;;10418006;28;20033;-80
2021/10/27 07:21:00;;;;;;;6.18;4.05;;;;;;;;;;10418838;28;20057;-81
2021/10/27 07:26:01;;;;;;;8.02;3.55;;;;;;;;;;10420116;28;20103;-80
2021/10/27 07:31:03;;;;;;;14.38;3.65;;;;;;;;;;10422765;28;20080;-81
2021/10/27 07:41:10;;;;;;;5.85;3.50;;;;;;;;;;10444373;28;20025;-81
2021/10/27 07:46:11;;;;;;;5.53;3.70;;;;;;;;;;10450116;22;20056;-81
2021/10/27 07:51:12;;;;;;;4.90;3.50;;;;;;;;;;10457989;28;20430;-80
2021/10/27 07:56:14;;;;;;;6.10;3.70;;;;;;;;;;10457221;28;20025;-80
2021/10/27 08:01:16;;;;;;;7.97;3.58;;;;;;;;;;10456346;28;20044;-81
2021/10/27 08:06:16;;;;;;;10.25;3.40;;;;;;;;;;10457062;28;20476;-82
2021/10/27 08:11:17;;;;;;;4.57;3.63;;;;;;;;;;10435843;28;20026;-81
2021/10/27 08:16:19;;;;;;;6.20;3.83;;;;;;;;;;10436127;28;20017;-81
2021/10/27 08:21:19;;;;;;;8.80;3.70;;;;;;;;;;10455517;28;20025;-81
2021/10/27 08:26:23;;;;;;;7.60;3.88;;;;;;;;;;10440171;28;20033;-82
2021/10/27 08:36:25;;;;;;;5.38;3.75;;;;;;;;;;10454365;28;20037;-82
2021/10/27 08:41:26;;;;;;;6.27;3.37;;;;;;;;;;10453044;28;20029;-82
2021/10/27 08:46:27;;;;;;;6.28;3.15;;;;;;;;;;10454139;28;20486;-81
2021/10/27 08:51:28;;;;;;;7.50;3.50;;;;;;;;;;10454118;28;20036;-81
2021/10/27 08:56:28;;;;;;;6.47;3.35;;;;;;;;;;10453877;28;20032;-82
2021/10/27 09:06:57;;;;;;;5.85;3.40;;;;;;;;;;10442273;28;20923;-81
2021/10/27 10:05:32;;;;;;;5.70;2.97;;;;;;;;;;10458021;28;20040;-82
2021/10/27 10:10:33;;;;;;;6.15;3.08;;;;;;;;;;10462441;28;20100;-81
2021/10/27 10:15:38;;;;;;;5.03;3.05;;;;;;;;;;10449226;28;20113;-82
2021/10/27 10:20:40;;;;;;;3.17;2.75;;;;;;;;;;10444613;28;20483;-82
2021/10/27 10:25:57;;;;;;;5.03;2.80;;;;;;;;;;10460411;28;20441;-82
2021/10/27 10:31:01;;;;;;;5.55;3.38;;;;;;;;;;10460124;28;20033;-82
2021/10/27 10:36:07;;;;;;;3.45;2.72;;;;;;;;;;10432343;28;20025;-81
2021/10/27 11:24:00;;;;;;;9.43;2.95;;;;;;;;;;10456329;28;20037;-81
2021/10/27 11:39:53;;;;;;;6.10;2.90;;;;;;;;;;10439062;28;20028;-81
2021/10/27 11:45:05;;;;;;;5.50;3.08;;;;;;;;;;10456808;28;20060;-82
2021/10/27 11:50:07;;;;;;;8.70;2.58;;;;;;;;;;10454637;28;20036;-81
2021/10/27 11:55:09;;;;;;;8.43;3.00;;;;;;;;;;10447168;28;20045;-82
2021/10/27 12:00:31;;;;;;;3.70;2.85;;;;;;;;;;10454362;28;20033;-82
2021/10/27 12:05:58;;;;;;;7.88;3.05;;;;;;;;;;10451884;28;20447;-82
2021/10/27 12:16:27;;;;;;;4.47;2.95;;;;;;;;;;10433135;28;20044;-81
2021/10/27 12:21:29;;;;;;;3.70;2.83;;;;;;;;;;10448352;28;20462;-81
2021/10/27 12:27:05;;;;;;;6.53;3.10;;;;;;;;;;10452214;28;20029;-81
2021/10/27 12:32:07;;;;;;;4.32;2.67;;;;;;;;;;10447482;28;20028;-83
2021/10/27 12:37:42;;;;;;;4.47;3.00;;;;;;;;;;10450143;28;20063;-82
2021/10/27 12:42:43;;;;;;;6.95;3.40;;;;;;;;;;10452296;28;20025;-78
2021/10/27 12:47:45;;;;;;;5.35;2.80;;;;;;;;;;10452133;28;20091;-78
2021/10/27 12:53:14;;;;;;;4.57;2.80;;;;;;;;;;10453715;28;20021;-79
2021/10/27 12:58:17;;;;;;;5.95;2.63;;;;;;;;;;10443990;28;20490;-79
2021/10/27 13:19:48;;;;;;;8.07;3.03;;;;;;;;;;10453558;28;20025;-79
2021/10/27 13:29:50;;;;;;;;;;;;;;;;;;10461865;28;20455;-79
2021/10/27 13:34:51;;;;;;;4.50;2.63;;;;;;;;;;10460993;28;19920;-79
2021/10/27 13:39:52;;;;;;;3.83;2.70;;;;;;;;;;10463333;28;20084;-79
2021/10/27 14:06:10;;;;;;;3.75;2.40;;;;;;;;;;10457251;28;20036;-79
2021/10/27 15:25:22;;;;;;;4.05;2.35;;;;;;;;;;10445744;28;20311;-80
2021/10/27 15:40:30;;;;;;;3.78;2.50;;;;;;;;;;10450577;28;20032;-79
2021/10/27 15:51:03;;;;;;;2.92;2.15;;;;;;;;;;10446789;28;20045;-79
2021/10/27 15:56:04;;;;;;;4.00;2.45;;;;;;;;;;10453126;28;20134;-80
2021/10/27 16:01:04;;;;;;;3.28;2.15;;;;;;;;;;10457366;28;20078;-79
2021/10/27 16:06:06;;;;;;;3.83;2.58;;;;;;;;;;10458430;28;20051;-79
2021/10/27 16:11:06;;;;;;;4.03;2.30;;;;;;;;;;10455311;28;20486;-80
2021/10/27 16:16:07;;;;;;;4.67;2.17;;;;;;;;;;10455056;28;20160;-79
2021/10/27 16:21:07;;;;;;;3.15;2.17;;;;;;;;;;10440718;28;20049;-80
2021/10/27 16:26:08;;;;;;;6.00;2.25;;;;;;;;;;10447073;28;20032;-79
2021/10/27 16:31:08;;;;;;;5.18;2.35;;;;;;;;;;10437810;28;20131;-79
2021/10/27 16:36:11;;;;;;;2.67;2.20;;;;;;;;;;10445317;28;20423;-80
2021/10/27 16:41:11;;;;;;;2.80;2.10;;;;;;;;;;10444848;28;20119;-79
2021/10/27 16:46:12;;;;;;;2.42;2.15;;;;;;;;;;10444339;28;20124;-79
2021/10/27 16:51:12;;;;;;;2.75;2.20;;;;;;;;;;10454688;28;20128;-80
2021/10/27 16:56:13;;;;;;;3.30;2.27;;;;;;;;;;10455067;28;20044;-80
2021/10/27 17:01:14;;;;;;;5.05;2.60;;;;;;;;;;10442011;28;20974;-80
2021/10/27 17:06:15;;;;;;;11.05;2.45;;;;;;;;;;10454410;28;20131;-80
2021/10/27 17:11:16;;;;;;;5.20;2.53;;;;;;;;;;10451346;28;20108;-81
2021/10/27 17:16:16;;;;;;;10.02;2.78;;;;;;;;;;10449084;28;20033;-81
2021/10/27 17:21:17;;;;;;;8.98;2.63;;;;;;;;;;10439048;28;20088;-81
2021/10/27 17:26:18;;;;;;;7.82;2.97;;;;;;;;;;10451692;28;20036;-81
2021/10/27 17:31:18;;;;;;;12.40;2.95;;;;;;;;;;10437620;28;20084;-80
2021/10/27 17:36:22;;;;;;;6.95;3.20;;;;;;;;;;10454229;28;20045;-81
2021/10/27 17:41:25;;;;;;;5.03;2.45;;;;;;;;;;10447900;28;20053;-81
2021/10/27 17:46:38;;;;;;;5.63;2.75;;;;;;;;;;10446108;28;20107;-81
2021/10/27 17:51:48;;;;;;;11.90;2.90;;;;;;;;;;10444664;28;20072;-80
2021/10/27 18:02:07;;;;;;;5.70;2.78;;;;;;;;;;10453850;28;20060;-80
2021/10/27 18:07:08;;;;;;;5.40;2.83;;;;;;;;;;10456537;28;20073;-80
2021/10/27 18:12:09;;;;;;;10.52;3.10;;;;;;;;;;10461222;28;20040;-80
2021/10/27 18:17:12;;;;;;;7.85;2.78;;;;;;;;;;10456551;28;20135;-79
2021/10/27 18:22:25;;;;;;;7.65;3.20;;;;;;;;;;10454912;28;20039;-79
2021/10/27 18:43:38;;;;;;;10.60;3.33;;;;;;;;;;10411703;28;20049;-79
2021/10/27 18:48:42;;;;;;;5.55;3.03;;;;;;;;;;10405747;28;20041;-80
2021/10/27 19:14:52;;;;;;;10.25;3.50;;;;;;;;;;10453422;28;20037;-80
2021/10/27 19:19:53;;;;;;;14.55;4.10;;;;;;;;;;10459081;28;20033;-80
2021/10/27 20:07:18;;;;;;;;;;;;;;;;;;10480571;28;19917;-80
2021/10/27 20:54:25;;;;;;;6.95;4.22;;;;;;;;;;10485663;28;20497;-80
2021/10/27 21:15:26;;;;;;;8.15;4.53;;;;;;;;;;10484113;28;20032;-80
2021/10/27 21:20:29;;;;;;;9.30;5.00;;;;;;;;;;10491342;28;20151;-80
2021/10/27 21:25:32;;;;;;;8.52;4.20;;;;;;;;;;10484325;28;20475;-79
2021/10/27 21:30:54;;;;;;;6.72;4.35;;;;;;;;;;10493446;28;20029;-79
2021/10/27 21:46:32;;;;;;;;;;;;;;;;;;10510298;28;20131;-80
2021/10/27 21:51:32;;;;;;;9.10;5.13;;;;;;;;;;10498103;28;19916;-79
2021/10/27 21:56:33;;;;;;;9.73;5.05;;;;;;;;;;10497428;28;20055;-79
2021/10/27 22:01:34;;;;;;;11.13;5.60;;;;;;;;;;10501436;28;20032;-79
2021/10/27 22:06:35;;;;;;;13.13;5.10;;;;;;;;;;10502722;28;20028;-80
2021/10/27 22:11:36;;;;;;;11.30;5.43;;;;;;;;;;10502203;28;20029;-81
2021/10/27 22:16:43;;;;;;;9.45;5.25;;;;;;;;;;10502734;28;20020;-79
2021/10/27 22:21:44;;;;;;;8.15;4.85;;;;;;;;;;10501100;28;20020;-80
2021/10/27 22:26:46;;;;;;;11.30;5.35;;;;;;;;;;10494691;28;20064;-80
2021/10/27 22:31:46;;;;;;;10.15;5.30;;;;;;;;;;10493114;28;20398;-80
2021/10/27 22:36:47;;;;;;;12.70;5.05;;;;;;;;;;10486560;28;20032;-80
2021/10/27 22:41:47;;;;;;;15.55;4.85;;;;;;;;;;10497417;28;20028;-80
2021/10/27 22:46:48;;;;;;;6.70;4.57;;;;;;;;;;10490356;28;20056;-80
2021/10/27 22:51:48;;;;;;;12.70;5.73;;;;;;;;;;10499338;28;20433;-81
2021/10/27 22:56:49;;;;;;;16.75;5.50;;;;;;;;;;10499089;28;20492;-79
2021/10/27 23:01:53;;;;;;;10.93;5.00;;;;;;;;;;10491031;28;20035;-79
2021/10/27 23:07:02;;;;;;;12.68;5.38;;;;;;;;;;10499568;28;20532;-79
2021/10/27 23:44:12;;;;;;;;;;;;;;;;;;10498679;28;19999;-78
2021/10/27 23:49:15;;;;;;;11.88;4.03;;;;;;;;;;10490714;28;19924;-78
2021/10/27 23:54:26;;;;;;;8.38;4.50;;;;;;;;;;10498547;28;20043;-79
